sensor_id;sensor_type;location;lat;lon;timestamp;P1;durP1;ratioP1;P2;durP2;ratioP2
4182;SDS011;2105;52.300;9.182;2024-02-16T00:01:11;12.40;;;11.40;;
4182;SDS011;2105;52.300;9.182;2024-02-16T00:03:40;13.00;;;11.90;;
4182;SDS011;2105;52.300;9.182;2024-02-16T00:06:06;11.93;;;11.03;;
4182;SDS011;2105;52.300;9.182;2024-02-16T00:08:33;12.83;;;11.63;;
4182;SDS011;2105;52.300;9.182;2024-02-16T00:11:03;11.70;;;10.90;;
4182;SDS011;2105;52.300;9.182;2024-02-16T00:13:30;11.70;;;10.80;;
4182;SDS011;2105;52.300;9.182;2024-02-16T00:15:57;11.80;;;10.90;;
4182;SDS011;2105;52.300;9.182;2024-02-16T00:18:24;15.83;;;11.83;;
4182;SDS011;2105;52.300;9.182;2024-02-16T00:20:52;12.90;;;11.67;;
4182;SDS011;2105;52.300;9.182;2024-02-16T00:23:19;12.30;;;11.30;;
4182;SDS011;2105;52.300;9.182;2024-02-16T00:25:47;12.70;;;11.53;;
4182;SDS011;2105;52.300;9.182;2024-02-16T00:28:14;12.77;;;11.60;;
4182;SDS011;2105;52.300;9.182;2024-02-16T00:30:40;12.60;;;11.50;;
4182;SDS011;2105;52.300;9.182;2024-02-16T00:33:07;12.33;;;11.23;;
4182;SDS011;2105;52.300;9.182;2024-02-16T00:35:34;11.77;;;10.80;;
4182;SDS011;2105;52.300;9.182;2024-02-16T00:38:02;12.40;;;11.13;;
4182;SDS011;2105;52.300;9.182;2024-02-16T00:40:29;11.70;;;10.70;;
4182;SDS011;2105;52.300;9.182;2024-02-16T00:42:55;11.93;;;11.03;;
4182;SDS011;2105;52.300;9.182;2024-02-16T00:45:22;11.83;;;10.90;;
4182;SDS011;2105;52.300;9.182;2024-02-16T00:47:50;11.90;;;11.10;;
4182;SDS011;2105;52.300;9.182;2024-02-16T00:50:16;11.60;;;10.70;;
4182;SDS011;2105;52.300;9.182;2024-02-16T00:52:43;12.63;;;11.17;;
4182;SDS011;2105;52.300;9.182;2024-02-16T00:55:12;11.50;;;10.60;;
4182;SDS011;2105;52.300;9.182;2024-02-16T00:57:39;11.40;;;10.60;;
4182;SDS011;2105;52.300;9.182;2024-02-16T01:00:06;12.87;;;11.30;;
4182;SDS011;2105;52.300;9.182;2024-02-16T01:02:34;13.23;;;10.93;;
4182;SDS011;2105;52.300;9.182;2024-02-16T01:05:00;11.93;;;10.93;;
4182;SDS011;2105;52.300;9.182;2024-02-16T01:07:27;11.97;;;10.90;;
4182;SDS011;2105;52.300;9.182;2024-02-16T01:09:56;11.83;;;10.83;;
4182;SDS011;2105;52.300;9.182;2024-02-16T01:12:24;11.60;;;10.80;;
4182;SDS011;2105;52.300;9.182;2024-02-16T01:14:50;12.23;;;11.00;;
4182;SDS011;2105;52.300;9.182;2024-02-16T01:17:17;12.23;;;10.93;;
4182;SDS011;2105;52.300;9.182;2024-02-16T01:19:44;12.23;;;11.00;;
4182;SDS011;2105;52.300;9.182;2024-02-16T01:22:11;13.17;;;11.40;;
4182;SDS011;2105;52.300;9.182;2024-02-16T01:24:38;11.90;;;10.80;;
4182;SDS011;2105;52.300;9.182;2024-02-16T01:27:05;11.90;;;10.93;;
4182;SDS011;2105;52.300;9.182;2024-02-16T01:29:33;11.80;;;10.70;;
4182;SDS011;2105;52.300;9.182;2024-02-16T01:31:59;11.63;;;10.83;;
4182;SDS011;2105;52.300;9.182;2024-02-16T01:34:27;12.83;;;11.37;;
4182;SDS011;2105;52.300;9.182;2024-02-16T01:36:55;12.50;;;11.33;;
4182;SDS011;2105;52.300;9.182;2024-02-16T01:39:21;12.17;;;11.07;;
4182;SDS011;2105;52.300;9.182;2024-02-16T01:41:48;11.53;;;10.70;;
4182;SDS011;2105;52.300;9.182;2024-02-16T01:44:15;12.20;;;11.10;;
4182;SDS011;2105;52.300;9.182;2024-02-16T01:46:43;12.20;;;10.97;;
4182;SDS011;2105;52.300;9.182;2024-02-16T01:49:10;11.57;;;10.77;;
4182;SDS011;2105;52.300;9.182;2024-02-16T01:51:39;11.80;;;10.73;;
4182;SDS011;2105;52.300;9.182;2024-02-16T01:54:06;12.20;;;11.20;;
4182;SDS011;2105;52.300;9.182;2024-02-16T01:56:33;13.93;;;11.57;;
4182;SDS011;2105;52.300;9.182;2024-02-16T01:58:59;12.27;;;11.10;;
4182;SDS011;2105;52.300;9.182;2024-02-16T02:01:26;11.97;;;11.07;;
4182;SDS011;2105;52.300;9.182;2024-02-16T02:03:54;12.17;;;11.27;;
4182;SDS011;2105;52.300;9.182;2024-02-16T02:06:21;15.83;;;11.47;;
4182;SDS011;2105;52.300;9.182;2024-02-16T02:08:48;12.63;;;11.43;;
4182;SDS011;2105;52.300;9.182;2024-02-16T02:11:14;12.43;;;11.43;;
4182;SDS011;2105;52.300;9.182;2024-02-16T02:13:41;13.80;;;12.03;;
4182;SDS011;2105;52.300;9.182;2024-02-16T02:16:08;12.73;;;11.63;;
4182;SDS011;2105;52.300;9.182;2024-02-16T02:18:36;12.93;;;11.93;;
4182;SDS011;2105;52.300;9.182;2024-02-16T02:21:05;13.10;;;11.87;;
4182;SDS011;2105;52.300;9.182;2024-02-16T02:23:33;13.30;;;12.00;;
4182;SDS011;2105;52.300;9.182;2024-02-16T02:26:00;12.60;;;11.67;;
4182;SDS011;2105;52.300;9.182;2024-02-16T02:28:27;14.67;;;12.23;;
4182;SDS011;2105;52.300;9.182;2024-02-16T02:30:54;12.80;;;11.80;;
4182;SDS011;2105;52.300;9.182;2024-02-16T02:33:21;13.80;;;11.90;;
4182;SDS011;2105;52.300;9.182;2024-02-16T02:35:47;12.60;;;11.70;;
4182;SDS011;2105;52.300;9.182;2024-02-16T02:38:14;12.50;;;11.60;;
4182;SDS011;2105;52.300;9.182;2024-02-16T02:40:42;13.03;;;11.67;;
4182;SDS011;2105;52.300;9.182;2024-02-16T02:43:09;12.40;;;11.10;;
4182;SDS011;2105;52.300;9.182;2024-02-16T02:45:35;13.03;;;11.63;;
4182;SDS011;2105;52.300;9.182;2024-02-16T02:48:02;13.50;;;12.40;;
4182;SDS011;2105;52.300;9.182;2024-02-16T02:50:29;12.60;;;11.60;;
4182;SDS011;2105;52.300;9.182;2024-02-16T02:52:56;15.57;;;12.13;;
4182;SDS011;2105;52.300;9.182;2024-02-16T02:55:23;12.37;;;11.33;;
4182;SDS011;2105;52.300;9.182;2024-02-16T02:57:51;12.30;;;11.40;;
4182;SDS011;2105;52.300;9.182;2024-02-16T03:00:18;12.80;;;11.80;;
4182;SDS011;2105;52.300;9.182;2024-02-16T03:02:45;13.53;;;11.80;;
4182;SDS011;2105;52.300;9.182;2024-02-16T03:05:12;12.90;;;12.00;;
4182;SDS011;2105;52.300;9.182;2024-02-16T03:07:38;13.03;;;11.83;;
4182;SDS011;2105;52.300;9.182;2024-02-16T03:10:06;13.07;;;12.07;;
4182;SDS011;2105;52.300;9.182;2024-02-16T03:12:34;13.67;;;12.27;;
4182;SDS011;2105;52.300;9.182;2024-02-16T03:15:02;13.53;;;12.43;;
4182;SDS011;2105;52.300;9.182;2024-02-16T03:17:29;13.87;;;12.57;;
4182;SDS011;2105;52.300;9.182;2024-02-16T03:19:56;13.20;;;12.20;;
4182;SDS011;2105;52.300;9.182;2024-02-16T03:22:23;13.10;;;12.20;;
4182;SDS011;2105;52.300;9.182;2024-02-16T03:24:49;13.60;;;12.60;;
4182;SDS011;2105;52.300;9.182;2024-02-16T03:27:16;13.40;;;12.50;;
4182;SDS011;2105;52.300;9.182;2024-02-16T03:29:42;13.40;;;12.40;;
4182;SDS011;2105;52.300;9.182;2024-02-16T03:32:10;14.00;;;12.90;;
4182;SDS011;2105;52.300;9.182;2024-02-16T03:34:37;13.40;;;12.40;;
4182;SDS011;2105;52.300;9.182;2024-02-16T03:37:04;13.80;;;12.70;;
4182;SDS011;2105;52.300;9.182;2024-02-16T03:39:31;14.97;;;13.50;;
4182;SDS011;2105;52.300;9.182;2024-02-16T03:41:57;15.23;;;13.63;;
4182;SDS011;2105;52.300;9.182;2024-02-16T03:44:24;14.47;;;13.27;;
4182;SDS011;2105;52.300;9.182;2024-02-16T03:46:51;13.60;;;12.50;;
4182;SDS011;2105;52.300;9.182;2024-02-16T03:49:19;14.10;;;12.90;;
4182;SDS011;2105;52.300;9.182;2024-02-16T03:51:45;14.10;;;12.80;;
4182;SDS011;2105;52.300;9.182;2024-02-16T03:54:12;15.60;;;13.40;;
4182;SDS011;2105;52.300;9.182;2024-02-16T03:56:39;14.03;;;12.93;;
4182;SDS011;2105;52.300;9.182;2024-02-16T03:59:06;13.60;;;12.60;;
4182;SDS011;2105;52.300;9.182;2024-02-16T04:01:33;13.83;;;12.83;;
4182;SDS011;2105;52.300;9.182;2024-02-16T04:03:59;13.37;;;12.47;;
4182;SDS011;2105;52.300;9.182;2024-02-16T04:06:27;14.80;;;13.40;;
4182;SDS011;2105;52.300;9.182;2024-02-16T04:08:54;14.50;;;13.13;;
4182;SDS011;2105;52.300;9.182;2024-02-16T04:11:21;13.20;;;12.20;;
4182;SDS011;2105;52.300;9.182;2024-02-16T04:13:48;13.90;;;12.70;;
4182;SDS011;2105;52.300;9.182;2024-02-16T04:16:15;19.87;;;12.73;;
4182;SDS011;2105;52.300;9.182;2024-02-16T04:18:41;13.30;;;12.30;;
4182;SDS011;2105;52.300;9.182;2024-02-16T04:21:08;13.53;;;12.50;;
4182;SDS011;2105;52.300;9.182;2024-02-16T04:23:36;13.83;;;12.50;;
4182;SDS011;2105;52.300;9.182;2024-02-16T04:26:02;13.90;;;12.70;;
4182;SDS011;2105;52.300;9.182;2024-02-16T04:28:31;15.80;;;12.77;;
4182;SDS011;2105;52.300;9.182;2024-02-16T04:30:58;14.07;;;12.83;;
4182;SDS011;2105;52.300;9.182;2024-02-16T04:33:25;13.77;;;12.53;;
4182;SDS011;2105;52.300;9.182;2024-02-16T04:35:51;13.17;;;12.20;;
4182;SDS011;2105;52.300;9.182;2024-02-16T04:38:18;13.97;;;12.57;;
4182;SDS011;2105;52.300;9.182;2024-02-16T04:40:46;13.47;;;12.37;;
4182;SDS011;2105;52.300;9.182;2024-02-16T04:43:13;13.63;;;12.23;;
4182;SDS011;2105;52.300;9.182;2024-02-16T04:45:39;13.77;;;12.33;;
4182;SDS011;2105;52.300;9.182;2024-02-16T04:48:06;13.43;;;12.07;;
4182;SDS011;2105;52.300;9.182;2024-02-16T04:50:34;13.70;;;12.70;;
4182;SDS011;2105;52.300;9.182;2024-02-16T04:53:01;13.77;;;12.73;;
4182;SDS011;2105;52.300;9.182;2024-02-16T04:55:28;14.67;;;13.13;;
4182;SDS011;2105;52.300;9.182;2024-02-16T04:57:57;14.57;;;13.37;;
4182;SDS011;2105;52.300;9.182;2024-02-16T05:00:24;14.80;;;13.70;;
4182;SDS011;2105;52.300;9.182;2024-02-16T05:02:50;15.23;;;14.03;;
4182;SDS011;2105;52.300;9.182;2024-02-16T05:05:17;14.97;;;13.73;;
4182;SDS011;2105;52.300;9.182;2024-02-16T05:07:46;15.17;;;13.77;;
4182;SDS011;2105;52.300;9.182;2024-02-16T05:10:14;15.20;;;13.97;;
4182;SDS011;2105;52.300;9.182;2024-02-16T05:12:41;15.50;;;14.00;;
4182;SDS011;2105;52.300;9.182;2024-02-16T05:15:09;15.00;;;13.80;;
4182;SDS011;2105;52.300;9.182;2024-02-16T05:17:38;14.53;;;13.33;;
4182;SDS011;2105;52.300;9.182;2024-02-16T05:20:07;14.23;;;13.13;;
4182;SDS011;2105;52.300;9.182;2024-02-16T05:22:39;14.37;;;13.27;;
4182;SDS011;2105;52.300;9.182;2024-02-16T05:25:07;15.33;;;14.03;;
4182;SDS011;2105;52.300;9.182;2024-02-16T05:27:34;15.03;;;13.73;;
4182;SDS011;2105;52.300;9.182;2024-02-16T05:30:01;14.30;;;13.30;;
4182;SDS011;2105;52.300;9.182;2024-02-16T05:32:30;16.13;;;14.63;;
4182;SDS011;2105;52.300;9.182;2024-02-16T05:34:57;14.97;;;13.67;;
4182;SDS011;2105;52.300;9.182;2024-02-16T05:37:25;15.43;;;14.07;;
4182;SDS011;2105;52.300;9.182;2024-02-16T05:39:51;14.83;;;13.73;;
4182;SDS011;2105;52.300;9.182;2024-02-16T05:42:22;14.60;;;13.40;;
4182;SDS011;2105;52.300;9.182;2024-02-16T05:44:49;14.50;;;13.40;;
4182;SDS011;2105;52.300;9.182;2024-02-16T05:47:16;14.97;;;13.77;;
4182;SDS011;2105;52.300;9.182;2024-02-16T05:49:44;14.80;;;13.60;;
4182;SDS011;2105;52.300;9.182;2024-02-16T05:52:11;14.70;;;13.60;;
4182;SDS011;2105;52.300;9.182;2024-02-16T05:54:45;17.80;;;14.23;;
4182;SDS011;2105;52.300;9.182;2024-02-16T05:57:12;14.57;;;13.50;;
4182;SDS011;2105;52.300;9.182;2024-02-16T05:59:39;14.47;;;13.37;;
4182;SDS011;2105;52.300;9.182;2024-02-16T06:02:07;14.50;;;13.40;;
4182;SDS011;2105;52.300;9.182;2024-02-16T06:04:35;14.60;;;13.40;;
4182;SDS011;2105;52.300;9.182;2024-02-16T06:07:04;14.60;;;13.20;;
4182;SDS011;2105;52.300;9.182;2024-02-16T06:09:31;15.13;;;13.63;;
4182;SDS011;2105;52.300;9.182;2024-02-16T06:12:00;15.33;;;14.13;;
4182;SDS011;2105;52.300;9.182;2024-02-16T06:14:29;14.80;;;13.50;;
4182;SDS011;2105;52.300;9.182;2024-02-16T06:16:56;15.20;;;13.80;;
4182;SDS011;2105;52.300;9.182;2024-02-16T06:19:22;14.30;;;13.20;;
4182;SDS011;2105;52.300;9.182;2024-02-16T06:21:49;14.63;;;13.50;;
4182;SDS011;2105;52.300;9.182;2024-02-16T06:24:17;15.07;;;13.60;;
4182;SDS011;2105;52.300;9.182;2024-02-16T06:26:44;14.90;;;13.70;;
4182;SDS011;2105;52.300;9.182;2024-02-16T06:29:11;14.43;;;13.33;;
4182;SDS011;2105;52.300;9.182;2024-02-16T06:31:38;14.10;;;13.00;;
4182;SDS011;2105;52.300;9.182;2024-02-16T06:34:05;15.00;;;13.60;;
4182;SDS011;2105;52.300;9.182;2024-02-16T06:36:33;14.63;;;13.40;;
4182;SDS011;2105;52.300;9.182;2024-02-16T06:39:00;14.03;;;12.93;;
4182;SDS011;2105;52.300;9.182;2024-02-16T06:41:28;14.83;;;13.53;;
4182;SDS011;2105;52.300;9.182;2024-02-16T06:43:55;14.20;;;13.10;;
4182;SDS011;2105;52.300;9.182;2024-02-16T06:46:21;14.60;;;13.40;;
4182;SDS011;2105;52.300;9.182;2024-02-16T06:48:49;14.80;;;13.50;;
4182;SDS011;2105;52.300;9.182;2024-02-16T06:51:17;14.23;;;12.93;;
4182;SDS011;2105;52.300;9.182;2024-02-16T06:53:43;13.70;;;12.60;;
4182;SDS011;2105;52.300;9.182;2024-02-16T06:56:10;14.03;;;12.83;;
4182;SDS011;2105;52.300;9.182;2024-02-16T06:58:39;17.00;;;13.70;;
4182;SDS011;2105;52.300;9.182;2024-02-16T07:01:06;14.47;;;13.17;;
4182;SDS011;2105;52.300;9.182;2024-02-16T07:03:33;14.33;;;13.10;;
4182;SDS011;2105;52.300;9.182;2024-02-16T07:06:01;14.13;;;13.03;;
4182;SDS011;2105;52.300;9.182;2024-02-16T07:08:28;13.90;;;12.70;;
4182;SDS011;2105;52.300;9.182;2024-02-16T07:10:56;14.60;;;13.20;;
4182;SDS011;2105;52.300;9.182;2024-02-16T07:13:23;14.93;;;13.50;;
4182;SDS011;2105;52.300;9.182;2024-02-16T07:15:51;14.17;;;12.90;;
4182;SDS011;2105;52.300;9.182;2024-02-16T07:18:18;13.73;;;12.63;;
4182;SDS011;2105;52.300;9.182;2024-02-16T07:20:44;13.90;;;12.73;;
4182;SDS011;2105;52.300;9.182;2024-02-16T07:23:11;14.13;;;13.00;;
4182;SDS011;2105;52.300;9.182;2024-02-16T07:25:38;13.80;;;12.80;;
4182;SDS011;2105;52.300;9.182;2024-02-16T07:28:04;13.87;;;12.77;;
4182;SDS011;2105;52.300;9.182;2024-02-16T07:30:31;14.43;;;13.10;;
4182;SDS011;2105;52.300;9.182;2024-02-16T07:33:00;14.30;;;13.20;;
4182;SDS011;2105;52.300;9.182;2024-02-16T07:35:27;14.30;;;13.20;;
4182;SDS011;2105;52.300;9.182;2024-02-16T07:37:53;14.47;;;13.37;;
4182;SDS011;2105;52.300;9.182;2024-02-16T07:40:20;15.67;;;14.37;;
4182;SDS011;2105;52.300;9.182;2024-02-16T07:42:47;15.57;;;14.27;;
4182;SDS011;2105;52.300;9.182;2024-02-16T07:45:14;14.87;;;13.77;;
4182;SDS011;2105;52.300;9.182;2024-02-16T07:47:40;15.17;;;13.87;;
4182;SDS011;2105;52.300;9.182;2024-02-16T07:50:09;15.27;;;14.17;;
4182;SDS011;2105;52.300;9.182;2024-02-16T07:52:37;15.43;;;14.33;;
4182;SDS011;2105;52.300;9.182;2024-02-16T07:55:05;15.23;;;14.00;;
4182;SDS011;2105;52.300;9.182;2024-02-16T07:57:32;16.00;;;14.60;;
4182;SDS011;2105;52.300;9.182;2024-02-16T07:59:59;15.33;;;14.13;;
4182;SDS011;2105;52.300;9.182;2024-02-16T08:02:25;15.67;;;14.50;;
4182;SDS011;2105;52.300;9.182;2024-02-16T08:04:52;16.17;;;14.90;;
4182;SDS011;2105;52.300;9.182;2024-02-16T08:07:20;15.53;;;14.30;;
4182;SDS011;2105;52.300;9.182;2024-02-16T08:09:47;15.60;;;14.10;;
4182;SDS011;2105;52.300;9.182;2024-02-16T08:12:14;15.43;;;13.90;;
4182;SDS011;2105;52.300;9.182;2024-02-16T08:14:41;16.03;;;14.63;;
4182;SDS011;2105;52.300;9.182;2024-02-16T08:17:08;15.40;;;14.30;;
4182;SDS011;2105;52.300;9.182;2024-02-16T08:19:36;15.47;;;14.27;;
4182;SDS011;2105;52.300;9.182;2024-02-16T08:22:04;15.70;;;14.50;;
4182;SDS011;2105;52.300;9.182;2024-02-16T08:24:34;15.60;;;14.60;;
4182;SDS011;2105;52.300;9.182;2024-02-16T08:27:01;15.87;;;14.77;;
4182;SDS011;2105;52.300;9.182;2024-02-16T08:29:29;16.33;;;15.00;;
4182;SDS011;2105;52.300;9.182;2024-02-16T08:31:56;15.63;;;14.63;;
4182;SDS011;2105;52.300;9.182;2024-02-16T08:34:22;16.10;;;14.90;;
4182;SDS011;2105;52.300;9.182;2024-02-16T08:36:51;15.80;;;14.70;;
4182;SDS011;2105;52.300;9.182;2024-02-16T08:39:18;16.33;;;15.23;;
4182;SDS011;2105;52.300;9.182;2024-02-16T08:41:46;15.90;;;14.70;;
4182;SDS011;2105;52.300;9.182;2024-02-16T08:44:13;16.20;;;14.30;;
4182;SDS011;2105;52.300;9.182;2024-02-16T08:46:40;16.33;;;14.70;;
4182;SDS011;2105;52.300;9.182;2024-02-16T08:49:07;16.30;;;14.87;;
4182;SDS011;2105;52.300;9.182;2024-02-16T08:51:34;15.90;;;14.20;;
4182;SDS011;2105;52.300;9.182;2024-02-16T08:54:01;17.40;;;15.67;;
4182;SDS011;2105;52.300;9.182;2024-02-16T08:56:29;16.30;;;15.03;;
4182;SDS011;2105;52.300;9.182;2024-02-16T08:58:58;17.00;;;15.50;;
4182;SDS011;2105;52.300;9.182;2024-02-16T09:01:31;17.30;;;15.83;;
4182;SDS011;2105;52.300;9.182;2024-02-16T09:03:58;15.33;;;14.13;;
4182;SDS011;2105;52.300;9.182;2024-02-16T09:06:25;16.57;;;15.27;;
4182;SDS011;2105;52.300;9.182;2024-02-16T09:08:51;18.23;;;15.23;;
4182;SDS011;2105;52.300;9.182;2024-02-16T09:11:18;16.10;;;15.00;;
4182;SDS011;2105;52.300;9.182;2024-02-16T09:13:45;16.37;;;15.10;;
4182;SDS011;2105;52.300;9.182;2024-02-16T09:16:13;17.10;;;15.57;;
4182;SDS011;2105;52.300;9.182;2024-02-16T09:18:39;16.63;;;15.30;;
4182;SDS011;2105;52.300;9.182;2024-02-16T09:21:06;15.40;;;14.20;;
4182;SDS011;2105;52.300;9.182;2024-02-16T09:23:34;15.70;;;14.40;;
4182;SDS011;2105;52.300;9.182;2024-02-16T09:26:01;15.87;;;14.40;;
4182;SDS011;2105;52.300;9.182;2024-02-16T09:28:28;15.70;;;14.50;;
4182;SDS011;2105;52.300;9.182;2024-02-16T09:30:55;16.03;;;14.60;;
4182;SDS011;2105;52.300;9.182;2024-02-16T09:33:23;15.90;;;14.50;;
4182;SDS011;2105;52.300;9.182;2024-02-16T09:35:51;15.30;;;14.10;;
4182;SDS011;2105;52.300;9.182;2024-02-16T09:38:18;15.67;;;14.00;;
4182;SDS011;2105;52.300;9.182;2024-02-16T09:40:46;15.93;;;14.60;;
4182;SDS011;2105;52.300;9.182;2024-02-16T09:43:24;16.07;;;14.77;;
4182;SDS011;2105;52.300;9.182;2024-02-16T09:45:53;15.97;;;14.57;;
4182;SDS011;2105;52.300;9.182;2024-02-16T09:48:20;16.13;;;14.70;;
4182;SDS011;2105;52.300;9.182;2024-02-16T09:50:49;15.27;;;14.03;;
4182;SDS011;2105;52.300;9.182;2024-02-16T09:53:17;15.00;;;14.00;;
4182;SDS011;2105;52.300;9.182;2024-02-16T09:55:46;15.70;;;14.30;;
4182;SDS011;2105;52.300;9.182;2024-02-16T09:58:13;15.37;;;14.23;;
4182;SDS011;2105;52.300;9.182;2024-02-16T10:00:47;15.60;;;14.40;;
4182;SDS011;2105;52.300;9.182;2024-02-16T10:03:21;15.67;;;14.37;;
4182;SDS011;2105;52.300;9.182;2024-02-16T10:05:49;16.40;;;14.87;;
4182;SDS011;2105;52.300;9.182;2024-02-16T10:08:17;15.57;;;14.40;;
4182;SDS011;2105;52.300;9.182;2024-02-16T10:10:43;15.83;;;14.63;;
4182;SDS011;2105;52.300;9.182;2024-02-16T10:13:11;16.53;;;15.13;;
4182;SDS011;2105;52.300;9.182;2024-02-16T10:15:38;15.83;;;14.73;;
4182;SDS011;2105;52.300;9.182;2024-02-16T10:18:05;15.93;;;14.63;;
4182;SDS011;2105;52.300;9.182;2024-02-16T10:20:33;15.90;;;14.80;;
4182;SDS011;2105;52.300;9.182;2024-02-16T10:23:05;15.83;;;14.63;;
4182;SDS011;2105;52.300;9.182;2024-02-16T10:25:46;16.00;;;14.70;;
4182;SDS011;2105;52.300;9.182;2024-02-16T10:28:13;20.17;;;18.70;;
4182;SDS011;2105;52.300;9.182;2024-02-16T10:30:42;19.50;;;17.77;;
4182;SDS011;2105;52.300;9.182;2024-02-16T10:33:09;17.00;;;15.70;;
4182;SDS011;2105;52.300;9.182;2024-02-16T10:35:37;16.77;;;15.27;;
4182;SDS011;2105;52.300;9.182;2024-02-16T10:38:06;16.50;;;15.10;;
4182;SDS011;2105;52.300;9.182;2024-02-16T10:40:37;16.80;;;15.40;;
4182;SDS011;2105;52.300;9.182;2024-02-16T10:43:04;16.30;;;15.00;;
4182;SDS011;2105;52.300;9.182;2024-02-16T10:45:33;17.20;;;15.80;;
4182;SDS011;2105;52.300;9.182;2024-02-16T10:48:01;16.87;;;15.37;;
4182;SDS011;2105;52.300;9.182;2024-02-16T10:50:28;16.33;;;15.00;;
4182;SDS011;2105;52.300;9.182;2024-02-16T10:52:55;16.77;;;15.10;;
4182;SDS011;2105;52.300;9.182;2024-02-16T10:55:26;16.50;;;14.93;;
4182;SDS011;2105;52.300;9.182;2024-02-16T10:57:55;15.83;;;14.73;;
4182;SDS011;2105;52.300;9.182;2024-02-16T11:00:24;16.63;;;15.20;;
4182;SDS011;2105;52.300;9.182;2024-02-16T11:02:51;15.90;;;14.50;;
4182;SDS011;2105;52.300;9.182;2024-02-16T11:05:34;15.37;;;14.00;;
4182;SDS011;2105;52.300;9.182;2024-02-16T11:08:02;15.70;;;14.40;;
4182;SDS011;2105;52.300;9.182;2024-02-16T11:10:30;17.80;;;16.40;;
4182;SDS011;2105;52.300;9.182;2024-02-16T11:13:00;16.30;;;15.10;;
4182;SDS011;2105;52.300;9.182;2024-02-16T11:15:30;16.23;;;14.80;;
4182;SDS011;2105;52.300;9.182;2024-02-16T11:17:57;15.77;;;13.87;;
4182;SDS011;2105;52.300;9.182;2024-02-16T11:20:26;16.03;;;14.63;;
4182;SDS011;2105;52.300;9.182;2024-02-16T11:22:53;15.43;;;14.13;;
4182;SDS011;2105;52.300;9.182;2024-02-16T11:25:19;15.43;;;14.27;;
4182;SDS011;2105;52.300;9.182;2024-02-16T11:27:58;17.07;;;15.47;;
4182;SDS011;2105;52.300;9.182;2024-02-16T11:30:24;16.30;;;15.00;;
4182;SDS011;2105;52.300;9.182;2024-02-16T11:32:51;16.30;;;15.10;;
4182;SDS011;2105;52.300;9.182;2024-02-16T11:35:18;15.80;;;14.60;;
4182;SDS011;2105;52.300;9.182;2024-02-16T11:37:45;15.90;;;14.67;;
4182;SDS011;2105;52.300;9.182;2024-02-16T11:40:12;16.10;;;14.60;;
4182;SDS011;2105;52.300;9.182;2024-02-16T11:42:40;16.10;;;14.70;;
4182;SDS011;2105;52.300;9.182;2024-02-16T11:45:09;15.37;;;14.27;;
4182;SDS011;2105;52.300;9.182;2024-02-16T11:47:37;18.87;;;16.33;;
4182;SDS011;2105;52.300;9.182;2024-02-16T11:50:04;16.10;;;14.80;;
4182;SDS011;2105;52.300;9.182;2024-02-16T11:52:35;16.40;;;15.10;;
4182;SDS011;2105;52.300;9.182;2024-02-16T11:55:03;17.20;;;15.73;;
4182;SDS011;2105;52.300;9.182;2024-02-16T11:57:30;17.40;;;15.80;;
4182;SDS011;2105;52.300;9.182;2024-02-16T11:59:58;25.03;;;16.30;;
4182;SDS011;2105;52.300;9.182;2024-02-16T12:02:29;17.30;;;15.47;;
4182;SDS011;2105;52.300;9.182;2024-02-16T12:04:58;16.53;;;15.13;;
4182;SDS011;2105;52.300;9.182;2024-02-16T12:07:25;16.67;;;15.23;;
4182;SDS011;2105;52.300;9.182;2024-02-16T12:09:56;16.20;;;15.00;;
4182;SDS011;2105;52.300;9.182;2024-02-16T12:12:23;16.63;;;15.13;;
4182;SDS011;2105;52.300;9.182;2024-02-16T12:14:50;16.77;;;15.17;;
4182;SDS011;2105;52.300;9.182;2024-02-16T12:17:19;17.27;;;15.67;;
4182;SDS011;2105;52.300;9.182;2024-02-16T12:19:46;17.10;;;15.40;;
4182;SDS011;2105;52.300;9.182;2024-02-16T12:22:16;17.80;;;15.60;;
4182;SDS011;2105;52.300;9.182;2024-02-16T12:24:43;16.77;;;15.20;;
4182;SDS011;2105;52.300;9.182;2024-02-16T12:27:10;17.23;;;15.53;;
4182;SDS011;2105;52.300;9.182;2024-02-16T12:29:38;17.07;;;15.50;;
4182;SDS011;2105;52.300;9.182;2024-02-16T12:32:05;17.00;;;15.13;;
4182;SDS011;2105;52.300;9.182;2024-02-16T12:34:35;16.53;;;15.13;;
4182;SDS011;2105;52.300;9.182;2024-02-16T12:37:04;17.80;;;15.30;;
4182;SDS011;2105;52.300;9.182;2024-02-16T12:39:32;16.17;;;14.83;;
4182;SDS011;2105;52.300;9.182;2024-02-16T12:41:58;15.70;;;14.40;;
4182;SDS011;2105;52.300;9.182;2024-02-16T12:44:25;15.47;;;14.27;;
4182;SDS011;2105;52.300;9.182;2024-02-16T12:46:52;15.20;;;13.80;;
4182;SDS011;2105;52.300;9.182;2024-02-16T12:49:18;15.20;;;13.60;;
4182;SDS011;2105;52.300;9.182;2024-02-16T12:51:48;15.93;;;14.40;;
4182;SDS011;2105;52.300;9.182;2024-02-16T12:54:15;15.57;;;14.27;;
4182;SDS011;2105;52.300;9.182;2024-02-16T12:56:44;15.83;;;14.20;;
4182;SDS011;2105;52.300;9.182;2024-02-16T12:59:10;15.67;;;14.07;;
4182;SDS011;2105;52.300;9.182;2024-02-16T13:01:38;15.73;;;14.23;;
4182;SDS011;2105;52.300;9.182;2024-02-16T13:04:07;15.90;;;14.30;;
4182;SDS011;2105;52.300;9.182;2024-02-16T13:06:35;22.73;;;14.57;;
4182;SDS011;2105;52.300;9.182;2024-02-16T13:09:03;16.30;;;14.90;;
4182;SDS011;2105;52.300;9.182;2024-02-16T13:11:30;17.73;;;15.03;;
4182;SDS011;2105;52.300;9.182;2024-02-16T13:13:59;16.10;;;14.57;;
4182;SDS011;2105;52.300;9.182;2024-02-16T13:16:32;16.33;;;14.60;;
4182;SDS011;2105;52.300;9.182;2024-02-16T13:19:09;16.40;;;14.67;;
4182;SDS011;2105;52.300;9.182;2024-02-16T13:21:36;15.70;;;14.27;;
4182;SDS011;2105;52.300;9.182;2024-02-16T13:24:05;16.57;;;14.70;;
4182;SDS011;2105;52.300;9.182;2024-02-16T13:26:32;16.50;;;14.80;;
4182;SDS011;2105;52.300;9.182;2024-02-16T13:28:59;17.03;;;15.30;;
4182;SDS011;2105;52.300;9.182;2024-02-16T13:31:26;16.20;;;14.70;;
4182;SDS011;2105;52.300;9.182;2024-02-16T13:33:53;16.23;;;14.63;;
4182;SDS011;2105;52.300;9.182;2024-02-16T13:36:20;17.77;;;14.87;;
4182;SDS011;2105;52.300;9.182;2024-02-16T13:38:47;17.97;;;15.67;;
4182;SDS011;2105;52.300;9.182;2024-02-16T13:41:15;15.90;;;14.50;;
4182;SDS011;2105;52.300;9.182;2024-02-16T13:43:42;16.87;;;15.43;;
4182;SDS011;2105;52.300;9.182;2024-02-16T13:46:09;16.60;;;14.90;;
4182;SDS011;2105;52.300;9.182;2024-02-16T13:48:35;18.00;;;15.87;;
4182;SDS011;2105;52.300;9.182;2024-02-16T13:51:04;15.37;;;14.03;;
4182;SDS011;2105;52.300;9.182;2024-02-16T13:53:32;15.80;;;14.30;;
4182;SDS011;2105;52.300;9.182;2024-02-16T13:55:58;21.07;;;15.63;;
4182;SDS011;2105;52.300;9.182;2024-02-16T13:58:30;17.47;;;15.90;;
4182;SDS011;2105;52.300;9.182;2024-02-16T14:00:59;20.10;;;15.17;;
4182;SDS011;2105;52.300;9.182;2024-02-16T14:03:26;17.77;;;15.97;;
4182;SDS011;2105;52.300;9.182;2024-02-16T14:05:53;16.87;;;15.33;;
4182;SDS011;2105;52.300;9.182;2024-02-16T14:08:20;19.80;;;15.20;;
4182;SDS011;2105;52.300;9.182;2024-02-16T14:10:47;18.93;;;16.50;;
4182;SDS011;2105;52.300;9.182;2024-02-16T14:13:14;17.93;;;16.07;;
4182;SDS011;2105;52.300;9.182;2024-02-16T14:15:44;18.63;;;16.40;;
4182;SDS011;2105;52.300;9.182;2024-02-16T14:18:11;21.23;;;16.10;;
4182;SDS011;2105;52.300;9.182;2024-02-16T14:20:38;18.93;;;17.00;;
4182;SDS011;2105;52.300;9.182;2024-02-16T14:23:05;18.90;;;16.90;;
4182;SDS011;2105;52.300;9.182;2024-02-16T14:25:34;20.17;;;18.07;;
4182;SDS011;2105;52.300;9.182;2024-02-16T14:28:05;21.83;;;16.70;;
4182;SDS011;2105;52.300;9.182;2024-02-16T14:30:32;19.73;;;17.73;;
4182;SDS011;2105;52.300;9.182;2024-02-16T14:33:04;19.30;;;17.40;;
4182;SDS011;2105;52.300;9.182;2024-02-16T14:35:31;19.03;;;16.90;;
4182;SDS011;2105;52.300;9.182;2024-02-16T14:38:01;18.80;;;16.93;;
4182;SDS011;2105;52.300;9.182;2024-02-16T14:40:28;21.57;;;17.67;;
4182;SDS011;2105;52.300;9.182;2024-02-16T14:42:55;23.37;;;17.87;;
4182;SDS011;2105;52.300;9.182;2024-02-16T14:45:21;19.77;;;16.20;;
4182;SDS011;2105;52.300;9.182;2024-02-16T14:47:49;18.63;;;16.93;;
4182;SDS011;2105;52.300;9.182;2024-02-16T14:50:18;18.37;;;16.50;;